createdAt,value
2016-11-11T00:00:00.864Z,4.3
2016-11-11T00:01:01.191Z,4.4
2016-11-11T00:02:00.309Z,4.4
2016-11-11T00:03:00.173Z,4.34
2016-11-11T00:04:00.483Z,4.34
2016-11-11T00:05:00.506Z,4.4
2016-11-11T00:06:00.743Z,4.38
2016-11-11T00:07:00.325Z,4.44
2016-11-11T00:08:00.338Z,4.5
2016-11-11T00:09:01.126Z,4.34
2016-11-11T00:10:00.839Z,4.42
2016-11-11T00:11:00.599Z,4.45
2016-11-11T00:12:00.536Z,4.38
2016-11-11T00:13:00.978Z,4.37
2016-11-11T00:14:00.767Z,4.41
2016-11-11T00:15:00.555Z,4.4
2016-11-11T00:16:00.618Z,4.4
2016-11-11T00:17:00.411Z,4.41
2016-11-11T00:18:00.824Z,4.37
2016-11-11T00:19:00.606Z,4.42
2016-11-11T00:20:00.859Z,4.4
2016-11-11T00:21:00.581Z,4.37
2016-11-11T00:22:01.565Z,4.44
2016-11-11T00:23:01.225Z,4.38
2016-11-11T00:24:01.679Z,4.45
2016-11-11T00:25:01.251Z,4.44
2016-11-11T00:26:01.263Z,4.42
2016-11-11T00:27:01.024Z,4.41
2016-11-11T00:28:00.959Z,4.42
2016-11-11T00:29:02.413Z,4.32
2016-11-11T00:30:00.792Z,4.42
2016-11-11T00:31:00.449Z,4.48
2016-11-11T00:32:00.464Z,4.42
2016-11-11T00:33:00.945Z,4.45
2016-11-11T00:34:01.660Z,4.35
2016-11-11T00:35:01.258Z,4.42
2016-11-11T00:36:00.832Z,4.48
2016-11-11T00:37:01.191Z,4.49
2016-11-11T00:38:00.956Z,4.42
2016-11-11T00:39:01.313Z,4.3
2016-11-11T00:40:01.404Z,4.3
2016-11-11T00:41:01.143Z,4.34
2016-11-11T00:42:00.666Z,4.48
2016-11-11T00:43:00.971Z,4.41
2016-11-11T00:44:01.606Z,4.41
2016-11-11T00:45:01.349Z,4.34
2016-11-11T00:46:00.610Z,4.32
2016-11-11T00:47:01.424Z,4.32
2016-11-11T00:48:01.064Z,4.32
2016-11-11T00:49:01.578Z,4.34
2016-11-11T00:50:00.737Z,4.34
2016-11-11T00:51:02.131Z,4.32
2016-11-11T00:52:02.272Z,4.4
2016-11-11T00:53:01.454Z,4.3
2016-11-11T00:54:01.189Z,4.32
2016-11-11T00:55:01.827Z,4.34
2016-11-11T00:56:01.150Z,4.4
2016-11-11T00:57:01.887Z,4.37
2016-11-11T00:58:01.424Z,4.35
2016-11-11T00:59:02.153Z,4.3
2016-11-11T01:00:01.469Z,4.34
2016-11-11T01:01:00.958Z,4.35
2016-11-11T01:02:01.398Z,4.34
2016-11-11T01:03:01.522Z,4.26
2016-11-11T01:04:01.632Z,4.31
2016-11-11T01:05:01.988Z,4.35
2016-11-11T01:06:01.607Z,4.35
2016-11-11T01:07:02.348Z,4.35
2016-11-11T01:08:01.037Z,4.34
2016-11-11T01:09:01.336Z,4.37
2016-11-11T01:10:01.691Z,4.28
2016-11-11T01:11:01.555Z,4.35
2016-11-11T01:12:02.286Z,4.3
2016-11-11T01:13:01.085Z,4.34
2016-11-11T01:14:01.338Z,4.34
2016-11-11T01:15:01.442Z,4.28
2016-11-11T01:16:01.733Z,4.31
2016-11-11T01:17:02.001Z,4.31
2016-11-11T01:18:01.992Z,4.31
2016-11-11T01:19:01.419Z,4.31
2016-11-11T01:20:01.449Z,4.26
2016-11-11T01:21:01.540Z,4.37
2016-11-11T01:22:02.692Z,4.32
2016-11-11T01:23:01.629Z,4.3
2016-11-11T01:24:02.250Z,4.3
2016-11-11T01:25:01.294Z,4.3
2016-11-11T01:26:01.383Z,4.34
2016-11-11T01:27:02.473Z,4.31
2016-11-11T01:28:01.960Z,4.35
2016-11-11T01:29:01.366Z,4.31
2016-11-11T01:30:01.458Z,4.3
2016-11-11T01:31:01.783Z,4.34
2016-11-11T01:32:01.693Z,4.34
2016-11-11T01:33:02.718Z,4.3
2016-11-11T01:34:02.903Z,4.35
2016-11-11T01:35:01.669Z,4.3
2016-11-11T01:36:02.851Z,4.32
2016-11-11T01:37:02.282Z,4.34
2016-11-11T01:38:01.539Z,4.32
2016-11-11T01:39:01.757Z,4.34
2016-11-11T01:40:02.772Z,4.31
2016-11-11T01:41:02.373Z,4.35
2016-11-11T01:42:01.759Z,4.32
2016-11-11T01:43:02.245Z,4.34
2016-11-11T01:44:02.208Z,4.31
2016-11-11T01:45:02.198Z,4.31
2016-11-11T01:46:01.714Z,4.31
2016-11-11T01:47:02.710Z,4.34
2016-11-11T01:48:01.694Z,4.37
2016-11-11T01:49:02.600Z,4.31
2016-11-11T01:50:01.902Z,4.34
2016-11-11T01:51:01.780Z,4.32
2016-11-11T01:52:02.605Z,4.35
2016-11-11T01:53:02.786Z,4.37
2016-11-11T01:54:01.955Z,4.34
2016-11-11T01:55:02.696Z,4.32
2016-11-11T01:56:02.598Z,4.35
2016-11-11T01:57:02.755Z,4.35
2016-11-11T01:58:01.830Z,4.34
2016-11-11T01:59:03.474Z,4.34
2016-11-11T02:00:02.208Z,4.3
2016-11-11T02:01:02.609Z,4.32
2016-11-11T02:02:02.082Z,4.34
2016-11-11T02:03:02.155Z,4.37
2016-11-11T02:04:01.893Z,4.42
2016-11-11T02:05:02.263Z,4.45
2016-11-11T02:06:02.333Z,4.42
2016-11-11T02:07:02.870Z,4.3
2016-11-11T02:08:02.323Z,4.37
2016-11-11T02:09:02.723Z,4.32
2016-11-11T02:10:01.776Z,4.3
2016-11-11T02:11:02.494Z,4.35
2016-11-11T02:12:03.039Z,4.34
2016-11-11T02:13:01.879Z,4.34
2016-11-11T02:14:02.450Z,4.38
2016-11-11T02:15:02.917Z,4.31
2016-11-11T02:16:02.472Z,4.3
2016-11-11T02:17:02.839Z,4.32
2016-11-11T02:18:02.389Z,4.35
2016-11-11T02:19:02.377Z,4.37
2016-11-11T02:20:02.727Z,4.32
2016-11-11T02:21:02.557Z,4.41
2016-11-11T02:22:03.115Z,4.32
2016-11-11T02:23:02.978Z,4.37
2016-11-11T02:24:02.777Z,4.31
2016-11-11T02:25:02.855Z,4.35
2016-11-11T02:26:02.218Z,4.28
2016-11-11T02:27:02.811Z,4.32
2016-11-11T02:28:02.525Z,4.34
2016-11-11T02:29:02.399Z,4.31
2016-11-11T02:30:02.644Z,4.28
2016-11-11T02:31:03.376Z,4.31
2016-11-11T02:32:02.800Z,4.34
2016-11-11T02:33:03.775Z,4.35
2016-11-11T02:34:02.866Z,4.34
2016-11-11T02:35:03.171Z,4.32
2016-11-11T02:36:02.746Z,4.35
2016-11-11T02:37:03.162Z,4.32
2016-11-11T02:38:03.388Z,4.32
2016-11-11T02:39:02.974Z,4.31
2016-11-11T02:40:02.537Z,4.34
2016-11-11T02:41:02.968Z,4.31
2016-11-11T02:42:02.513Z,4.35
2016-11-11T02:43:03.727Z,4.32
2016-11-11T02:44:02.559Z,4.3
2016-11-11T02:45:02.566Z,4.31
2016-11-11T02:46:02.677Z,4.31
2016-11-11T02:47:03.465Z,4.32
2016-11-11T02:48:03.275Z,4.31
2016-11-11T02:49:03.305Z,4.28
2016-11-11T02:50:03.312Z,4.26
2016-11-11T02:51:04.163Z,4.26
2016-11-11T02:52:03.034Z,4.31
2016-11-11T02:53:02.733Z,4.26
2016-11-11T02:54:05.016Z,4.28
2016-11-11T02:55:02.530Z,4.23
2016-11-11T02:56:03.354Z,4.23
2016-11-11T02:57:02.874Z,4.3
2016-11-11T02:58:03.219Z,4.3
2016-11-11T02:59:03.534Z,4.24
2016-11-11T03:00:02.757Z,4.26
2016-11-11T03:01:03.060Z,4.24
2016-11-11T03:02:03.029Z,4.26
2016-11-11T03:03:03.722Z,4.2
2016-11-11T03:04:03.753Z,4.22
2016-11-11T03:05:02.997Z,4.26
2016-11-11T03:06:03.691Z,4.23
2016-11-11T03:07:06.908Z,4.24
2016-11-11T03:08:02.886Z,4.28
2016-11-11T03:09:02.893Z,4.22
2016-11-11T03:10:03.235Z,4.22
2016-11-11T03:11:02.742Z,4.28
2016-11-11T03:12:03.781Z,4.22
2016-11-11T03:13:03.201Z,4.23
2016-11-11T03:14:03.086Z,4.22
2016-11-11T03:15:03.441Z,4.28
2016-11-11T03:16:02.920Z,4.23
2016-11-11T03:17:03.784Z,4.24
2016-11-11T03:18:02.558Z,4.26
2016-11-11T03:19:03.550Z,4.24
2016-11-11T03:20:03.432Z,4.22
2016-11-11T03:21:03.278Z,4.3
2016-11-11T03:22:03.107Z,4.31
2016-11-11T03:23:04.067Z,4.24
2016-11-11T03:24:03.253Z,4.3
2016-11-11T03:25:03.717Z,4.23
2016-11-11T03:26:03.424Z,4.24
2016-11-11T03:27:03.091Z,4.16
2016-11-11T03:28:03.962Z,4.14
2016-11-11T03:29:03.245Z,4.22
2016-11-11T03:30:02.893Z,4.2
2016-11-11T03:31:03.164Z,4.14
2016-11-11T03:32:04.109Z,4.14
2016-11-11T03:33:04.536Z,4.17
2016-11-11T03:34:03.605Z,4.16
2016-11-11T03:35:04.032Z,4.13
2016-11-11T03:36:03.466Z,4.17
2016-11-11T03:37:04.097Z,4.13
2016-11-11T03:38:03.141Z,4.16
2016-11-11T03:39:03.151Z,4.1
2016-11-11T03:40:03.155Z,4.19
2016-11-11T03:41:03.256Z,4.16
2016-11-11T03:42:03.149Z,4.12
2016-11-11T03:43:03.036Z,4.14
2016-11-11T03:44:03.736Z,4.12
2016-11-11T03:45:03.994Z,4.16
2016-11-11T03:46:03.909Z,4.08
2016-11-11T03:47:04.613Z,4.13
2016-11-11T03:48:03.771Z,4.12
2016-11-11T03:49:03.712Z,4.08
2016-11-11T03:50:03.609Z,4.2
2016-11-11T03:51:04.357Z,4.14
2016-11-11T03:52:03.963Z,4.17
2016-11-11T03:53:03.552Z,4.1
2016-11-11T03:54:03.823Z,4.16
2016-11-11T03:55:03.567Z,4.13
2016-11-11T03:56:03.458Z,4.1
2016-11-11T03:57:04.322Z,4.13
2016-11-11T03:58:03.331Z,4.12
2016-11-11T03:59:03.857Z,4.02
2016-11-11T04:00:03.348Z,4.08
2016-11-11T04:01:03.947Z,4.17
2016-11-11T04:02:03.962Z,4.16
2016-11-11T04:03:04.827Z,4.14
2016-11-11T04:04:03.317Z,4.17
2016-11-11T04:05:03.590Z,4.14
2016-11-11T04:06:04.265Z,4.22
2016-11-11T04:07:04.432Z,4.14
2016-11-11T04:08:03.633Z,4.22
2016-11-11T04:09:04.095Z,4.26
2016-11-11T04:10:03.715Z,4.19
2016-11-11T04:11:03.597Z,4.17
2016-11-11T04:12:04.215Z,4.12
2016-11-11T04:13:03.564Z,4.16
2016-11-11T04:14:03.755Z,4.16
2016-11-11T04:15:03.874Z,4.16
2016-11-11T04:16:03.988Z,4.17
2016-11-11T04:17:04.109Z,4.19
2016-11-11T04:18:04.658Z,4.16
2016-11-11T04:19:04.959Z,4.14
2016-11-11T04:20:04.658Z,4.16
2016-11-11T04:21:03.768Z,4.13
2016-11-11T04:22:04.127Z,4.17
2016-11-11T04:23:05.118Z,4.19
2016-11-11T04:24:04.194Z,4.19
2016-11-11T04:25:04.471Z,4.19
2016-11-11T04:26:04.772Z,4.2
2016-11-11T04:27:04.335Z,4.14
2016-11-11T04:28:04.613Z,4.17
2016-11-11T04:29:04.926Z,4.17
2016-11-11T04:30:04.914Z,4.16
2016-11-11T04:31:04.034Z,4.17
2016-11-11T04:32:04.264Z,4.16
2016-11-11T04:33:04.371Z,4.2
2016-11-11T04:34:04.096Z,4.19
2016-11-11T04:35:03.855Z,4.17
2016-11-11T04:36:04.115Z,4.19
2016-11-11T04:37:04.098Z,4.16
2016-11-11T04:38:04.298Z,4.16
2016-11-11T04:39:04.418Z,4.22
2016-11-11T04:40:04.768Z,4.2
2016-11-11T04:41:04.657Z,4.23
2016-11-11T04:42:03.966Z,4.17
2016-11-11T04:43:03.984Z,4.2
2016-11-11T04:44:04.219Z,4.17
2016-11-11T04:45:04.858Z,4.17
2016-11-11T04:46:04.376Z,4.19
2016-11-11T04:47:04.575Z,4.17
2016-11-11T04:48:05.312Z,4.19
2016-11-11T04:49:05.009Z,4.13
2016-11-11T04:50:04.247Z,4.17
2016-11-11T04:51:04.546Z,4.17
2016-11-11T04:52:05.471Z,4.2
2016-11-11T04:53:04.380Z,4.17
2016-11-11T04:54:04.148Z,4.24
2016-11-11T04:55:04.751Z,4.2
2016-11-11T04:56:05.192Z,4.23
2016-11-11T04:57:04.582Z,4.14
2016-11-11T04:58:04.277Z,4.22
2016-11-11T04:59:03.984Z,4.23
2016-11-11T05:00:04.508Z,4.14
2016-11-11T05:01:04.652Z,4.2
2016-11-11T05:02:04.433Z,4.16
2016-11-11T05:03:04.380Z,4.12
2016-11-11T05:04:05.150Z,4.17
2016-11-11T05:05:04.656Z,4.17
2016-11-11T05:06:04.661Z,4.17
2016-11-11T05:07:04.687Z,4.14
2016-11-11T05:08:05.392Z,4.16
2016-11-11T05:09:04.817Z,4.23
2016-11-11T05:10:05.614Z,4.16
2016-11-11T05:11:05.094Z,4.22
2016-11-11T05:12:05.028Z,4.17
2016-11-11T05:13:04.779Z,4.24
2016-11-11T05:14:04.909Z,4.23
2016-11-11T05:15:05.877Z,4.24
2016-11-11T05:16:05.533Z,4.22
2016-11-11T05:17:06.734Z,4.2
2016-11-11T05:18:05.692Z,4.19
2016-11-11T05:19:05.037Z,4.28
2016-11-11T05:20:05.994Z,4.24
2016-11-11T05:21:05.194Z,4.2
2016-11-11T05:22:05.694Z,4.28
2016-11-11T05:23:05.538Z,4.22
2016-11-11T05:24:05.952Z,4.24
2016-11-11T05:25:04.918Z,4.17
2016-11-11T05:26:05.035Z,4.14
2016-11-11T05:27:05.995Z,4.19
2016-11-11T05:28:04.971Z,4.14
2016-11-11T05:29:04.507Z,4.24
2016-11-11T05:30:04.976Z,4.2
2016-11-11T05:31:05.539Z,4.14
2016-11-11T05:32:05.139Z,4.12
2016-11-11T05:33:05.921Z,4.19
2016-11-11T05:34:05.333Z,4.17
2016-11-11T05:35:06.147Z,4.12
2016-11-11T05:36:05.700Z,4.19
2016-11-11T05:37:05.152Z,4.17
2016-11-11T05:38:05.348Z,4.19
2016-11-11T05:39:04.943Z,4.16
2016-11-11T05:40:05.155Z,4.19
2016-11-11T05:41:05.572Z,4.17
2016-11-11T05:42:05.579Z,4.17
2016-11-11T05:43:05.529Z,4.1
2016-11-11T05:44:05.814Z,4.17
2016-11-11T05:45:05.205Z,4.17
2016-11-11T05:46:05.634Z,4.16
2016-11-11T05:47:05.292Z,4.08
2016-11-11T05:48:05.557Z,4.02
2016-11-11T05:49:05.594Z,4.04
2016-11-11T05:50:05.660Z,4.05
2016-11-11T05:51:06.825Z,4.14
2016-11-11T05:52:05.660Z,4.06
2016-11-11T05:53:05.357Z,3.99
2016-11-11T05:54:05.319Z,4.02
2016-11-11T05:55:06.710Z,4.06
2016-11-11T05:56:05.184Z,4.04
2016-11-11T05:57:05.447Z,3.99
2016-11-11T05:58:06.089Z,3.99
2016-11-11T05:59:06.894Z,3.96
2016-11-11T06:00:06.193Z,4.01
2016-11-11T06:01:05.482Z,4.01
2016-11-11T06:02:05.314Z,4.01
2016-11-11T06:03:05.583Z,4.13
2016-11-11T06:04:06.118Z,4.04
2016-11-11T06:05:05.827Z,4.01
2016-11-11T06:06:05.415Z,4.05
2016-11-11T06:07:06.024Z,4.06
2016-11-11T06:08:05.353Z,4.02
2016-11-11T06:09:06.119Z,4.04
2016-11-11T06:10:06.531Z,4.1
2016-11-11T06:11:06.172Z,4.04
2016-11-11T06:12:05.959Z,3.99
2016-11-11T06:13:06.461Z,4.04
2016-11-11T06:14:05.979Z,4.01
2016-11-11T06:15:06.231Z,4.06
2016-11-11T06:16:06.255Z,4.13
2016-11-11T06:17:06.840Z,4.04
2016-11-11T06:18:05.897Z,4.04
2016-11-11T06:19:05.993Z,4.01
2016-11-11T06:20:05.920Z,4.01
2016-11-11T06:21:06.869Z,3.99
2016-11-11T06:22:05.907Z,4.06
2016-11-11T06:23:05.896Z,4.05
2016-11-11T06:24:05.871Z,4.16
2016-11-11T06:25:06.360Z,4.04
2016-11-11T06:26:05.836Z,4.1
2016-11-11T06:27:06.774Z,4.01
2016-11-11T06:28:06.110Z,4.04
2016-11-11T06:29:05.525Z,4.05
2016-11-11T06:30:05.337Z,4.06
2016-11-11T06:31:06.845Z,3.99
2016-11-11T06:32:06.678Z,3.99
2016-11-11T06:33:06.986Z,4.01
2016-11-11T06:34:06.406Z,4.05
2016-11-11T06:35:06.022Z,4.01
2016-11-11T06:36:07.112Z,3.99
2016-11-11T06:37:06.459Z,4.04
2016-11-11T06:38:06.234Z,4.01
2016-11-11T06:39:06.335Z,4.04
2016-11-11T06:40:06.661Z,4.02
2016-11-11T06:41:06.009Z,4.02
2016-11-11T06:42:06.120Z,4.02
2016-11-11T06:43:06.075Z,4.02
2016-11-11T06:44:05.609Z,3.99
2016-11-11T06:45:05.552Z,4.01
2016-11-11T06:46:05.947Z,4.02
2016-11-11T06:47:05.924Z,3.99
2016-11-11T06:48:06.113Z,4.04
2016-11-11T06:49:06.406Z,3.92
2016-11-11T06:50:06.001Z,4.05
2016-11-11T06:51:06.462Z,4.01
2016-11-11T06:52:06.480Z,3.96
2016-11-11T06:53:06.428Z,3.96
2016-11-11T06:54:06.375Z,4.05
2016-11-11T06:55:05.848Z,4.02
2016-11-11T06:56:06.165Z,4.06
2016-11-11T06:57:06.363Z,4.01
2016-11-11T06:58:06.310Z,3.99
2016-11-11T06:59:06.100Z,3.99
2016-11-11T07:00:06.529Z,4.01
2016-11-11T07:01:06.324Z,4.02
2016-11-11T07:02:07.018Z,4.04
2016-11-11T07:03:07.658Z,3.99
2016-11-11T07:04:05.682Z,4.01
2016-11-11T07:05:05.891Z,4.02
2016-11-11T07:06:06.498Z,4.01
2016-11-11T07:07:06.284Z,3.98
2016-11-11T07:08:06.454Z,3.96
2016-11-11T07:09:05.596Z,3.94
2016-11-11T07:10:06.020Z,4.01
2016-11-11T07:11:06.246Z,3.98
2016-11-11T07:12:05.906Z,3.99
2016-11-11T07:13:06.315Z,3.99
2016-11-11T07:14:06.281Z,3.99
2016-11-11T07:15:06.634Z,4.02
2016-11-11T07:16:06.515Z,4.04
2016-11-11T07:17:06.051Z,4.02
2016-11-11T07:18:05.992Z,4.04
2016-11-11T07:19:06.614Z,4.04
2016-11-11T07:20:05.768Z,4.01
2016-11-11T07:21:06.138Z,3.99
2016-11-11T07:22:06.494Z,3.95
2016-11-11T07:23:06.362Z,4.01
2016-11-11T07:24:06.461Z,3.99
2016-11-11T07:25:06.685Z,3.98
2016-11-11T07:26:06.156Z,3.98
2016-11-11T07:27:05.937Z,3.96
2016-11-11T07:28:06.491Z,4.04
2016-11-11T07:29:06.560Z,4.02
2016-11-11T07:30:06.906Z,3.96
2016-11-11T07:31:06.822Z,3.95
2016-11-11T07:32:06.503Z,3.95
2016-11-11T07:33:06.786Z,3.92
2016-11-11T07:34:06.287Z,3.98
2016-11-11T07:35:06.971Z,3.96
2016-11-11T07:36:07.299Z,3.95
2016-11-11T07:37:06.454Z,3.95
2016-11-11T07:38:06.975Z,3.96
2016-11-11T07:39:06.367Z,3.96
2016-11-11T07:40:06.711Z,3.96
2016-11-11T07:41:06.645Z,3.95
2016-11-11T07:42:06.546Z,3.95
2016-11-11T07:43:06.756Z,3.96
2016-11-11T07:44:07.000Z,3.95
2016-11-11T07:45:06.905Z,3.98
2016-11-11T07:46:08.215Z,3.96
2016-11-11T07:47:06.721Z,3.95
2016-11-11T07:48:06.806Z,3.91
2016-11-11T07:49:07.283Z,3.96
2016-11-11T07:50:07.217Z,3.95
2016-11-11T07:51:07.028Z,3.92
2016-11-11T07:52:06.996Z,3.98
2016-11-11T07:53:06.782Z,4.04
2016-11-11T07:54:07.495Z,4.01
2016-11-11T07:55:07.229Z,4.04
2016-11-11T07:56:07.023Z,4.01
2016-11-11T07:57:08.248Z,3.99
2016-11-11T07:58:08.094Z,4.05
2016-11-11T07:59:07.361Z,3.96
2016-11-11T08:00:07.676Z,4.05
2016-11-11T08:01:07.609Z,3.98
2016-11-11T08:02:07.565Z,4.13
2016-11-11T08:03:06.478Z,3.98
2016-11-11T08:04:07.356Z,4.08
2016-11-11T08:05:07.435Z,4.04
2016-11-11T08:06:07.045Z,4.08
2016-11-11T08:07:07.293Z,4.08
2016-11-11T08:08:07.332Z,4.02
2016-11-11T08:09:08.035Z,4.05
2016-11-11T08:10:08.060Z,4.02
2016-11-11T08:11:07.277Z,4.04
2016-11-11T08:12:07.638Z,4.01
2016-11-11T08:13:07.252Z,4.01
2016-11-11T08:14:07.258Z,4.02
2016-11-11T08:15:07.564Z,4.02
2016-11-11T08:16:08.105Z,4.01
2016-11-11T08:17:08.147Z,4.04
2016-11-11T08:18:08.189Z,4.01
2016-11-11T08:19:07.138Z,4.05
2016-11-11T08:20:08.279Z,4.01
2016-11-11T08:21:10.655Z,4.08
2016-11-11T08:22:08.080Z,4.05
2016-11-11T08:23:08.149Z,4.12
2016-11-11T08:24:07.742Z,4.19
2016-11-11T08:25:07.686Z,4.17
2016-11-11T08:26:07.801Z,4.19
2016-11-11T08:27:07.314Z,4.17
2016-11-11T08:28:07.302Z,4.26
2016-11-11T08:29:07.647Z,4.31
2016-11-11T08:30:08.292Z,4.17
2016-11-11T08:31:07.774Z,4.24
2016-11-11T08:32:07.743Z,4.26
2016-11-11T08:33:07.555Z,4.28
2016-11-11T08:34:07.635Z,4.22
2016-11-11T08:35:07.974Z,4.28
2016-11-11T08:36:07.677Z,4.28
2016-11-11T08:37:08.883Z,4.23
2016-11-11T08:38:08.210Z,4.19
2016-11-11T08:39:08.642Z,4.14
2016-11-11T08:40:08.957Z,4.26
2016-11-11T08:41:07.977Z,4.23
2016-11-11T08:42:07.332Z,4.23
2016-11-11T08:43:08.475Z,4.34
2016-11-11T08:44:07.676Z,4.34
2016-11-11T08:45:07.184Z,4.3
2016-11-11T08:46:07.883Z,4.31
2016-11-11T08:47:08.648Z,4.34
2016-11-11T08:48:07.633Z,4.34
2016-11-11T08:49:07.874Z,4.34
2016-11-11T08:50:08.405Z,4.28
2016-11-11T08:51:08.257Z,4.34
2016-11-11T08:52:08.364Z,4.26
2016-11-11T08:53:07.848Z,4.24
2016-11-11T08:54:08.226Z,4.14
2016-11-11T08:55:08.337Z,4.24
2016-11-11T08:56:07.811Z,4.22
2016-11-11T08:57:08.314Z,4.31
2016-11-11T08:58:08.894Z,4.22
2016-11-11T08:59:07.891Z,4.26
2016-11-11T09:00:07.351Z,4.24
2016-11-11T09:01:07.605Z,4.31
2016-11-11T09:02:07.854Z,4.3
2016-11-11T09:03:08.258Z,4.31
2016-11-11T09:04:08.127Z,4.3
2016-11-11T09:05:07.813Z,4.3
2016-11-11T09:06:07.994Z,4.34
2016-11-11T09:07:08.834Z,4.32
2016-11-11T09:08:07.945Z,4.35
2016-11-11T09:09:08.874Z,4.32
2016-11-11T09:10:08.421Z,4.32
2016-11-11T09:11:08.422Z,4.32
2016-11-11T09:12:08.014Z,4.34
2016-11-11T09:13:07.855Z,4.44
2016-11-11T09:14:08.380Z,4.38
2016-11-11T09:15:08.281Z,4.32
2016-11-11T09:16:08.407Z,4.41
2016-11-11T09:17:08.981Z,4.44
2016-11-11T09:18:07.971Z,4.42
2016-11-11T09:19:08.476Z,4.41
2016-11-11T09:20:08.905Z,4.49
2016-11-11T09:21:07.794Z,4.48
2016-11-11T09:22:08.248Z,4.44
2016-11-11T09:23:08.094Z,4.42
2016-11-11T09:24:08.973Z,4.42
2016-11-11T09:25:08.484Z,4.49
2016-11-11T09:26:08.386Z,4.49
2016-11-11T09:27:07.825Z,4.48
2016-11-11T09:28:08.907Z,4.49
2016-11-11T09:29:08.427Z,4.49
2016-11-11T09:30:08.763Z,4.52
2016-11-11T09:31:08.800Z,4.52
2016-11-11T09:32:08.499Z,4.53
2016-11-11T09:33:08.894Z,4.55
2016-11-11T09:34:09.450Z,4.52
2016-11-11T09:35:07.916Z,4.53
2016-11-11T09:36:08.015Z,4.49
2016-11-11T09:37:08.912Z,4.55
2016-11-11T09:38:09.241Z,4.5
2016-11-11T09:39:09.819Z,4.49
2016-11-11T09:40:08.447Z,4.53
2016-11-11T09:41:08.770Z,4.59
2016-11-11T09:42:09.293Z,4.6
2016-11-11T09:43:08.306Z,4.58
2016-11-11T09:44:08.369Z,4.49
2016-11-11T09:45:08.369Z,4.49
2016-11-11T09:46:09.000Z,4.53
2016-11-11T09:47:09.000Z,4.63
2016-11-11T09:48:08.963Z,4.58
2016-11-11T09:49:08.995Z,4.6
2016-11-11T09:50:08.789Z,4.62
2016-11-11T09:51:09.150Z,4.6
2016-11-11T09:52:08.505Z,4.66
2016-11-11T09:53:08.404Z,4.7
2016-11-11T09:54:09.078Z,4.67
2016-11-11T09:55:09.302Z,4.6
2016-11-11T09:56:08.158Z,4.59
2016-11-11T09:57:08.839Z,4.7
2016-11-11T09:58:09.256Z,4.66
2016-11-11T09:59:08.245Z,4.66
2016-11-11T10:00:08.864Z,4.58
2016-11-11T10:01:08.599Z,4.52
2016-11-11T10:02:09.057Z,4.49
2016-11-11T10:03:08.590Z,4.52
2016-11-11T10:04:08.723Z,4.5
2016-11-11T10:05:08.898Z,4.49
2016-11-11T10:06:08.821Z,4.5
2016-11-11T10:07:08.454Z,4.53
2016-11-11T10:08:08.969Z,4.52
2016-11-11T10:09:08.996Z,4.48
2016-11-11T10:10:08.518Z,4.37
2016-11-11T10:11:09.107Z,4.44
2016-11-11T10:12:09.143Z,4.4
2016-11-11T10:13:08.753Z,4.49
2016-11-11T10:14:09.167Z,4.44
2016-11-11T10:15:08.613Z,4.48
2016-11-11T10:16:09.236Z,4.49
2016-11-11T10:17:09.329Z,4.49
2016-11-11T10:18:08.696Z,4.49
2016-11-11T10:19:09.132Z,4.58
2016-11-11T10:20:09.018Z,4.49
2016-11-11T10:21:09.585Z,4.5
2016-11-11T10:22:08.886Z,4.41
2016-11-11T10:23:09.035Z,4.42
2016-11-11T10:24:09.480Z,4.48
2016-11-11T10:25:09.569Z,4.5
2016-11-11T10:26:08.530Z,4.5
2016-11-11T10:27:09.269Z,4.58
2016-11-11T10:28:08.834Z,4.6
2016-11-11T10:29:09.324Z,4.63
2016-11-11T10:30:09.480Z,4.73
2016-11-11T10:31:09.278Z,4.71
2016-11-11T10:32:09.261Z,4.7
2016-11-11T10:33:09.372Z,4.73
2016-11-11T10:34:09.493Z,4.74
2016-11-11T10:35:09.680Z,4.7
2016-11-11T10:36:09.185Z,4.59
2016-11-11T10:37:09.207Z,4.66
2016-11-11T10:38:09.424Z,4.6
2016-11-11T10:39:10.303Z,4.6
2016-11-11T10:40:09.142Z,4.59
2016-11-11T10:41:08.832Z,4.52
2016-11-11T10:42:09.711Z,4.58
2016-11-11T10:43:08.724Z,4.53
2016-11-11T10:44:10.202Z,4.52
2016-11-11T10:45:09.189Z,4.49
2016-11-11T10:46:09.614Z,4.44
2016-11-11T10:47:09.145Z,4.48
2016-11-11T10:48:08.867Z,4.48
2016-11-11T10:49:09.004Z,4.44
2016-11-11T10:50:09.189Z,4.41
2016-11-11T10:51:09.976Z,4.32
2016-11-11T10:52:09.637Z,4.4
2016-11-11T10:53:09.451Z,4.31
2016-11-11T10:54:10.072Z,4.26
2016-11-11T10:55:09.595Z,4.28
2016-11-11T10:56:10.275Z,4.22
2016-11-11T10:57:09.163Z,4.17
2016-11-11T10:58:09.840Z,4.17
2016-11-11T10:59:09.984Z,4.28
2016-11-11T11:00:09.251Z,4.24
2016-11-11T11:01:09.648Z,4.2
2016-11-11T11:02:09.437Z,4.14
2016-11-11T11:03:10.050Z,4.14
2016-11-11T11:04:09.855Z,3.96
2016-11-11T11:05:10.631Z,4.01
2016-11-11T11:06:09.801Z,3.99
2016-11-11T11:07:09.604Z,3.98
2016-11-11T11:08:10.079Z,3.99
2016-11-11T11:09:09.206Z,4.12
2016-11-11T11:10:10.050Z,4.05
2016-11-11T11:11:09.525Z,3.98
2016-11-11T11:12:09.164Z,4.04
2016-11-11T11:13:09.465Z,3.99
2016-11-11T11:14:09.993Z,4.04
2016-11-11T11:15:11.044Z,4.05
2016-11-11T11:16:09.962Z,4.14
2016-11-11T11:17:10.067Z,4.1
2016-11-11T11:18:09.385Z,4.06
2016-11-11T11:19:09.355Z,4.12
2016-11-11T11:20:10.066Z,4.01
2016-11-11T11:21:09.983Z,4.01
2016-11-11T11:22:11.003Z,4.13
2016-11-11T11:23:10.939Z,4.16
2016-11-11T11:24:10.328Z,4.1
2016-11-11T11:25:09.959Z,4.1
2016-11-11T11:26:10.403Z,3.99
2016-11-11T11:27:10.520Z,4.04
2016-11-11T11:28:09.656Z,4.01
2016-11-11T11:29:09.835Z,4.01
2016-11-11T11:30:10.229Z,4.06
2016-11-11T11:31:10.026Z,4.13
2016-11-11T11:32:10.094Z,4.01
2016-11-11T11:33:10.206Z,3.98
2016-11-11T11:34:10.306Z,4.12
2016-11-11T11:35:10.052Z,4.17
2016-11-11T11:36:10.341Z,4.17
2016-11-11T11:37:10.182Z,4.31
2016-11-11T11:38:11.164Z,4.31
2016-11-11T11:39:10.235Z,4.42
2016-11-11T11:40:10.123Z,4.45
2016-11-11T11:41:09.819Z,4.42
2016-11-11T11:42:10.489Z,4.49
2016-11-11T11:43:10.109Z,4.44
2016-11-11T11:44:10.421Z,4.5
2016-11-11T11:45:11.276Z,4.48
2016-11-11T11:46:09.800Z,4.6
2016-11-11T11:47:10.312Z,4.62
2016-11-11T11:48:09.780Z,4.63
2016-11-11T11:49:10.819Z,4.73
2016-11-11T11:50:11.227Z,4.59
2016-11-11T11:51:09.760Z,4.59
2016-11-11T11:52:10.667Z,4.7
2016-11-11T11:53:11.126Z,4.73
2016-11-11T11:54:10.712Z,4.82
2016-11-11T11:55:10.157Z,4.87
2016-11-11T11:56:10.367Z,4.96
2016-11-11T11:57:10.653Z,5.05
2016-11-11T11:58:10.525Z,5.15
2016-11-11T11:59:10.434Z,5.14
2016-11-11T12:00:10.571Z,5
2016-11-11T12:01:09.995Z,4.99
2016-11-11T12:02:10.704Z,5
2016-11-11T12:03:10.221Z,4.93
2016-11-11T12:04:10.236Z,5
2016-11-11T12:05:10.794Z,5.02
2016-11-11T12:06:10.579Z,4.86
2016-11-11T12:07:10.532Z,4.92
2016-11-11T12:08:10.595Z,4.93
2016-11-11T12:09:10.766Z,4.82
2016-11-11T12:10:10.756Z,4.82
2016-11-11T12:11:10.751Z,4.84
2016-11-11T12:12:10.808Z,4.58
2016-11-11T12:13:10.848Z,4.68
2016-11-11T12:14:10.582Z,4.7
2016-11-11T12:15:10.754Z,4.71
2016-11-11T12:16:10.248Z,4.73
2016-11-11T12:17:10.796Z,4.68
2016-11-11T12:18:11.225Z,4.53
2016-11-11T12:19:10.588Z,4.52
2016-11-11T12:20:10.440Z,4.48
2016-11-11T12:21:10.554Z,4.48
2016-11-11T12:22:10.753Z,4.48
2016-11-11T12:23:11.247Z,4.5
2016-11-11T12:24:10.958Z,4.4
2016-11-11T12:25:10.922Z,4.48
2016-11-11T12:26:10.963Z,4.49
2016-11-11T12:27:10.948Z,4.42
2016-11-11T12:28:10.790Z,4.5
2016-11-11T12:29:11.121Z,4.49
2016-11-11T12:30:11.149Z,4.6
2016-11-11T12:31:10.670Z,4.59
2016-11-11T12:32:11.131Z,4.66
2016-11-11T12:33:12.194Z,4.67
2016-11-11T12:34:10.605Z,4.68
2016-11-11T12:35:11.415Z,4.62
2016-11-11T12:36:10.851Z,4.56
2016-11-11T12:37:11.559Z,4.55
2016-11-11T12:38:10.797Z,4.42
2016-11-11T12:39:11.240Z,4.41
2016-11-11T12:40:10.923Z,4.42
2016-11-11T12:41:11.098Z,4.41
2016-11-11T12:42:11.132Z,4.3
2016-11-11T12:43:11.557Z,4.23
2016-11-11T12:44:10.911Z,4.13
2016-11-11T12:45:11.922Z,4.01
2016-11-11T12:46:11.094Z,3.87
2016-11-11T12:47:11.648Z,3.78
2016-11-11T12:48:11.146Z,3.74
2016-11-11T12:49:11.480Z,3.7
2016-11-11T12:50:11.170Z,3.73
2016-11-11T12:51:10.496Z,3.59
2016-11-11T12:52:10.639Z,3.7
2016-11-11T12:53:11.155Z,3.69
2016-11-11T12:54:11.464Z,3.8
2016-11-11T12:55:11.328Z,3.63
2016-11-11T12:56:11.089Z,3.6
2016-11-11T12:57:11.080Z,3.51
2016-11-11T12:58:11.448Z,3.5
2016-11-11T12:59:11.290Z,3.45
2016-11-11T13:00:11.252Z,3.4
2016-11-11T13:01:11.937Z,3.37
2016-11-11T13:02:10.972Z,3.37
2016-11-11T13:03:10.781Z,3.28
2016-11-11T13:04:10.850Z,3.28
2016-11-11T13:05:11.061Z,3.26
2016-11-11T13:06:11.795Z,3.34
2016-11-11T13:07:11.497Z,3.31
2016-11-11T13:08:11.006Z,3.22
2016-11-11T13:09:11.237Z,3.23
2016-11-11T13:10:12.040Z,3.21
2016-11-11T13:11:12.458Z,3.23
2016-11-11T13:12:11.009Z,3.23
2016-11-11T13:13:12.028Z,3.22
2016-11-11T13:14:11.186Z,3.14
2016-11-11T13:15:11.447Z,3.21
2016-11-11T13:16:11.368Z,3.19
2016-11-11T13:17:11.723Z,3.22
2016-11-11T13:18:11.192Z,3.05
2016-11-11T13:19:11.713Z,3.21
2016-11-11T13:20:11.815Z,3.23
2016-11-11T13:21:11.698Z,3.25